sensor_id;sensor_type;location;lat;lon;timestamp;pressure;altitude;pressure_sealevel;temperature;humidity
20444;BME280;10381;53.730;10.010;2023-03-15T00:01:28;100284.19;;;-0.62;100.00
20444;BME280;10381;53.730;10.010;2023-03-15T00:05:28;100287.94;;;-0.68;100.00
20444;BME280;10381;53.730;10.010;2023-03-15T00:09:30;100300.19;;;-0.70;100.00
20444;BME280;10381;53.730;10.010;2023-03-15T00:13:32;100314.03;;;-0.69;100.00
20444;BME280;10381;53.730;10.010;2023-03-15T00:17:32;100320.63;;;-0.62;100.00
20444;BME280;10381;53.730;10.010;2023-03-15T00:21:34;100332.53;;;-0.58;100.00
20444;BME280;10381;53.730;10.010;2023-03-15T00:25:34;100331.69;;;-0.58;100.00
20444;BME280;10381;53.730;10.010;2023-03-15T00:29:35;100336.69;;;-0.54;100.00
20444;BME280;10381;53.730;10.010;2023-03-15T00:33:35;100342.22;;;-0.60;100.00
20444;BME280;10381;53.730;10.010;2023-03-15T00:37:35;100343.25;;;-0.64;100.00
20444;BME280;10381;53.730;10.010;2023-03-15T00:41:36;100350.34;;;-0.68;100.00
20444;BME280;10381;53.730;10.010;2023-03-15T00:45:37;100360.09;;;-0.71;100.00
20444;BME280;10381;53.730;10.010;2023-03-15T00:49:39;100365.28;;;-0.71;100.00
20444;BME280;10381;53.730;10.010;2023-03-15T00:53:42;100371.38;;;-0.72;100.00
20444;BME280;10381;53.730;10.010;2023-03-15T00:57:44;100374.91;;;-0.73;100.00
20444;BME280;10381;53.730;10.010;2023-03-15T01:01:44;100374.00;;;-0.72;100.00
20444;BME280;10381;53.730;10.010;2023-03-15T01:05:45;100378.34;;;-0.73;100.00
20444;BME280;10381;53.730;10.010;2023-03-15T01:09:45;100378.44;;;-0.74;100.00
20444;BME280;10381;53.730;10.010;2023-03-15T01:13:45;100379.13;;;-0.71;100.00
20444;BME280;10381;53.730;10.010;2023-03-15T01:17:47;100378.13;;;-0.68;100.00
20444;BME280;10381;53.730;10.010;2023-03-15T01:21:47;100382.97;;;-0.60;100.00
20444;BME280;10381;53.730;10.010;2023-03-15T01:25:47;100379.25;;;-0.55;100.00
20444;BME280;10381;53.730;10.010;2023-03-15T01:29:47;100384.44;;;-0.55;100.00
20444;BME280;10381;53.730;10.010;2023-03-15T01:33:48;100389.50;;;-0.52;100.00
20444;BME280;10381;53.730;10.010;2023-03-15T01:37:49;100400.69;;;-0.50;100.00
20444;BME280;10381;53.730;10.010;2023-03-15T01:41:49;100389.44;;;-0.50;100.00
20444;BME280;10381;53.730;10.010;2023-03-15T01:50:07;100402.34;;;-0.49;100.00
20444;BME280;10381;53.730;10.010;2023-03-15T01:58:24;100423.38;;;-0.53;100.00
20444;BME280;10381;53.730;10.010;2023-03-15T02:02:26;100426.31;;;-0.59;100.00
20444;BME280;10381;53.730;10.010;2023-03-15T02:06:27;100428.81;;;-0.58;100.00
20444;BME280;10381;53.730;10.010;2023-03-15T02:10:51;100426.97;;;-0.56;100.00
20444;BME280;10381;53.730;10.010;2023-03-15T02:14:52;100437.38;;;-0.56;100.00
20444;BME280;10381;53.730;10.010;2023-03-15T02:18:53;100456.31;;;-0.52;100.00
20444;BME280;10381;53.730;10.010;2023-03-15T02:23:02;100455.22;;;-0.48;100.00
20444;BME280;10381;53.730;10.010;2023-03-15T02:27:04;100454.28;;;-0.46;100.00
20444;BME280;10381;53.730;10.010;2023-03-15T02:31:05;100449.91;;;-0.45;100.00
20444;BME280;10381;53.730;10.010;2023-03-15T02:35:05;100462.13;;;-0.47;100.00
20444;BME280;10381;53.730;10.010;2023-03-15T02:39:17;100471.09;;;-0.53;100.00
20444;BME280;10381;53.730;10.010;2023-03-15T02:43:22;100467.63;;;-0.53;100.00
20444;BME280;10381;53.730;10.010;2023-03-15T02:47:27;100480.63;;;-0.53;100.00
20444;BME280;10381;53.730;10.010;2023-03-15T02:51:32;100484.94;;;-0.52;100.00
20444;BME280;10381;53.730;10.010;2023-03-15T02:55:32;100490.16;;;-0.52;100.00
20444;BME280;10381;53.730;10.010;2023-03-15T02:59:32;100504.69;;;-0.48;100.00
20444;BME280;10381;53.730;10.010;2023-03-15T03:03:33;100511.59;;;-0.47;100.00
20444;BME280;10381;53.730;10.010;2023-03-15T03:07:34;100515.19;;;-0.50;100.00
20444;BME280;10381;53.730;10.010;2023-03-15T03:11:34;100528.97;;;-0.48;100.00
20444;BME280;10381;53.730;10.010;2023-03-15T03:15:35;100536.78;;;-0.48;100.00
20444;BME280;10381;53.730;10.010;2023-03-15T03:19:35;100545.63;;;-0.52;100.00
20444;BME280;10381;53.730;10.010;2023-03-15T03:23:36;100547.19;;;-0.48;100.00
20444;BME280;10381;53.730;10.010;2023-03-15T03:27:37;100556.81;;;-0.50;100.00
20444;BME280;10381;53.730;10.010;2023-03-15T03:31:38;100566.25;;;-0.47;100.00
20444;BME280;10381;53.730;10.010;2023-03-15T03:35:38;100566.25;;;-0.47;100.00
20444;BME280;10381;53.730;10.010;2023-03-15T03:39:38;100573.13;;;-0.46;100.00
20444;BME280;10381;53.730;10.010;2023-03-15T03:43:39;100579.19;;;-0.46;100.00
20444;BME280;10381;53.730;10.010;2023-03-15T03:47:40;100591.34;;;-0.46;100.00
20444;BME280;10381;53.730;10.010;2023-03-15T03:51:40;100598.31;;;-0.47;100.00
20444;BME280;10381;53.730;10.010;2023-03-15T03:55:40;100593.88;;;-0.45;100.00
20444;BME280;10381;53.730;10.010;2023-03-15T03:59:41;100597.47;;;-0.47;100.00
20444;BME280;10381;53.730;10.010;2023-03-15T04:03:41;100592.47;;;-0.52;100.00
20444;BME280;10381;53.730;10.010;2023-03-15T04:07:42;100602.44;;;-0.61;100.00
20444;BME280;10381;53.730;10.010;2023-03-15T04:11:42;100607.06;;;-0.68;100.00
20444;BME280;10381;53.730;10.010;2023-03-15T04:15:43;100605.47;;;-0.71;100.00
20444;BME280;10381;53.730;10.010;2023-03-15T04:19:43;100604.88;;;-0.77;100.00
20444;BME280;10381;53.730;10.010;2023-03-15T04:23:46;100610.38;;;-0.83;100.00
20444;BME280;10381;53.730;10.010;2023-03-15T04:27:46;100614.19;;;-0.92;100.00
20444;BME280;10381;53.730;10.010;2023-03-15T04:31:57;100615.91;;;-1.12;100.00
20444;BME280;10381;53.730;10.010;2023-03-15T04:36:02;100626.50;;;-1.16;100.00
20444;BME280;10381;53.730;10.010;2023-03-15T04:40:02;100634.03;;;-1.10;100.00
20444;BME280;10381;53.730;10.010;2023-03-15T04:44:04;100642.94;;;-1.16;100.00
20444;BME280;10381;53.730;10.010;2023-03-15T04:48:04;100647.09;;;-1.12;100.00
20444;BME280;10381;53.730;10.010;2023-03-15T04:52:05;100634.44;;;-1.19;100.00
20444;BME280;10381;53.730;10.010;2023-03-15T04:56:05;100634.81;;;-1.29;100.00
20444;BME280;10381;53.730;10.010;2023-03-15T05:00:07;100644.28;;;-1.27;100.00
20444;BME280;10381;53.730;10.010;2023-03-15T05:04:11;100649.25;;;-1.21;100.00
20444;BME280;10381;53.730;10.010;2023-03-15T05:08:12;100655.41;;;-1.03;100.00
20444;BME280;10381;53.730;10.010;2023-03-15T05:12:12;100671.59;;;-0.97;100.00
20444;BME280;10381;53.730;10.010;2023-03-15T05:16:13;100673.97;;;-0.91;100.00
20444;BME280;10381;53.730;10.010;2023-03-15T05:20:14;100682.84;;;-0.96;100.00
20444;BME280;10381;53.730;10.010;2023-03-15T05:24:15;100683.81;;;-0.99;100.00
20444;BME280;10381;53.730;10.010;2023-03-15T05:28:15;100696.72;;;-0.96;100.00
20444;BME280;10381;53.730;10.010;2023-03-15T05:32:17;100703.72;;;-0.98;100.00
20444;BME280;10381;53.730;10.010;2023-03-15T05:36:17;100720.97;;;-0.95;100.00
20444;BME280;10381;53.730;10.010;2023-03-15T05:40:17;100712.59;;;-0.81;100.00
20444;BME280;10381;53.730;10.010;2023-03-15T05:44:18;100719.47;;;-0.80;100.00
20444;BME280;10381;53.730;10.010;2023-03-15T05:48:18;100730.19;;;-0.88;100.00
20444;BME280;10381;53.730;10.010;2023-03-15T05:52:18;100742.56;;;-0.93;100.00
20444;BME280;10381;53.730;10.010;2023-03-15T05:56:19;100740.06;;;-0.96;100.00
20444;BME280;10381;53.730;10.010;2023-03-15T06:00:22;100756.59;;;-0.97;100.00
20444;BME280;10381;53.730;10.010;2023-03-15T06:04:23;100756.78;;;-1.02;100.00
20444;BME280;10381;53.730;10.010;2023-03-15T06:08:24;100761.25;;;-1.05;100.00
20444;BME280;10381;53.730;10.010;2023-03-15T06:12:24;100762.88;;;-1.03;100.00
20444;BME280;10381;53.730;10.010;2023-03-15T06:16:25;100774.91;;;-1.00;100.00
20444;BME280;10381;53.730;10.010;2023-03-15T06:20:25;100777.84;;;-0.88;100.00
20444;BME280;10381;53.730;10.010;2023-03-15T06:24:25;100784.63;;;-0.83;100.00
20444;BME280;10381;53.730;10.010;2023-03-15T06:28:27;100791.28;;;-0.76;100.00
20444;BME280;10381;53.730;10.010;2023-03-15T06:32:27;100788.28;;;-0.67;100.00
20444;BME280;10381;53.730;10.010;2023-03-15T06:36:27;100790.72;;;-0.62;100.00
20444;BME280;10381;53.730;10.010;2023-03-15T06:40:28;100802.56;;;-0.55;100.00
20444;BME280;10381;53.730;10.010;2023-03-15T06:44:28;100804.88;;;-0.49;100.00
20444;BME280;10381;53.730;10.010;2023-03-15T06:48:29;100808.72;;;-0.37;100.00
20444;BME280;10381;53.730;10.010;2023-03-15T06:52:30;100810.09;;;-0.29;100.00
20444;BME280;10381;53.730;10.010;2023-03-15T06:56:31;100820.19;;;-0.21;100.00
20444;BME280;10381;53.730;10.010;2023-03-15T07:00:36;100830.41;;;-0.16;100.00
20444;BME280;10381;53.730;10.010;2023-03-15T07:04:36;100865.66;;;-0.30;100.00
20444;BME280;10381;53.730;10.010;2023-03-15T07:08:36;100907.13;;;-0.25;100.00
20444;BME280;10381;53.730;10.010;2023-03-15T07:12:37;100921.06;;;-0.48;100.00
20444;BME280;10381;53.730;10.010;2023-03-15T07:16:37;100926.59;;;-0.56;100.00
20444;BME280;10381;53.730;10.010;2023-03-15T07:20:37;100918.88;;;-0.57;100.00
20444;BME280;10381;53.730;10.010;2023-03-15T07:24:38;100920.56;;;-0.56;100.00
20444;BME280;10381;53.730;10.010;2023-03-15T07:28:38;100918.47;;;-0.48;100.00
20444;BME280;10381;53.730;10.010;2023-03-15T07:32:38;100915.59;;;-0.40;100.00
20444;BME280;10381;53.730;10.010;2023-03-15T07:36:38;100930.09;;;-0.35;100.00
20444;BME280;10381;53.730;10.010;2023-03-15T07:40:39;100925.72;;;-0.34;100.00
20444;BME280;10381;53.730;10.010;2023-03-15T07:44:39;100936.81;;;-0.29;100.00
20444;BME280;10381;53.730;10.010;2023-03-15T07:48:39;100937.91;;;-0.35;100.00
20444;BME280;10381;53.730;10.010;2023-03-15T07:52:40;100924.66;;;-0.29;100.00
20444;BME280;10381;53.730;10.010;2023-03-15T07:56:40;100923.03;;;-0.31;100.00
20444;BME280;10381;53.730;10.010;2023-03-15T08:00:40;100921.25;;;-0.31;100.00
20444;BME280;10381;53.730;10.010;2023-03-15T08:04:41;100925.34;;;-0.25;100.00
20444;BME280;10381;53.730;10.010;2023-03-15T08:08:41;100920.38;;;-0.09;100.00
20444;BME280;10381;53.730;10.010;2023-03-15T08:12:42;100921.81;;;-0.02;100.00
20444;BME280;10381;53.730;10.010;2023-03-15T08:16:42;100925.66;;;0.10;100.00
20444;BME280;10381;53.730;10.010;2023-03-15T08:20:43;100925.91;;;0.04;100.00
20444;BME280;10381;53.730;10.010;2023-03-15T08:24:43;100943.63;;;0.16;100.00
20444;BME280;10381;53.730;10.010;2023-03-15T08:28:44;100941.66;;;0.21;100.00
20444;BME280;10381;53.730;10.010;2023-03-15T08:32:46;100943.34;;;0.42;100.00
20444;BME280;10381;53.730;10.010;2023-03-15T08:36:47;100961.13;;;0.53;100.00
20444;BME280;10381;53.730;10.010;2023-03-15T08:40:47;100968.78;;;0.96;100.00
20444;BME280;10381;53.730;10.010;2023-03-15T08:44:48;100975.41;;;1.22;100.00
20444;BME280;10381;53.730;10.010;2023-03-15T08:48:48;100985.22;;;1.55;100.00
20444;BME280;10381;53.730;10.010;2023-03-15T08:52:49;101002.66;;;1.54;100.00
20444;BME280;10381;53.730;10.010;2023-03-15T08:56:49;101027.66;;;0.82;100.00
20444;BME280;10381;53.730;10.010;2023-03-15T09:00:50;101035.22;;;0.27;100.00
20444;BME280;10381;53.730;10.010;2023-03-15T09:04:51;101020.34;;;0.09;100.00
20444;BME280;10381;53.730;10.010;2023-03-15T09:08:51;101029.72;;;0.13;100.00
20444;BME280;10381;53.730;10.010;2023-03-15T09:12:52;101033.25;;;0.32;100.00
20444;BME280;10381;53.730;10.010;2023-03-15T09:16:53;101037.31;;;0.39;100.00
20444;BME280;10381;53.730;10.010;2023-03-15T09:20:53;101033.88;;;0.39;100.00
20444;BME280;10381;53.730;10.010;2023-03-15T09:24:53;101041.94;;;0.53;100.00
20444;BME280;10381;53.730;10.010;2023-03-15T09:28:54;101049.75;;;0.74;100.00
20444;BME280;10381;53.730;10.010;2023-03-15T09:32:54;101037.84;;;0.68;100.00
20444;BME280;10381;53.730;10.010;2023-03-15T09:36:54;101047.59;;;0.83;100.00
20444;BME280;10381;53.730;10.010;2023-03-15T09:40:59;101051.59;;;1.11;100.00
20444;BME280;10381;53.730;10.010;2023-03-15T09:45:19;101053.94;;;1.36;100.00
20444;BME280;10381;53.730;10.010;2023-03-15T09:49:36;101053.00;;;1.75;100.00
20444;BME280;10381;53.730;10.010;2023-03-15T09:53:44;101056.84;;;1.30;100.00
20444;BME280;10381;53.730;10.010;2023-03-15T09:58:00;101065.16;;;1.57;100.00
20444;BME280;10381;53.730;10.010;2023-03-15T10:02:09;101054.56;;;1.79;100.00
20444;BME280;10381;53.730;10.010;2023-03-15T10:06:29;101059.91;;;1.95;100.00
20444;BME280;10381;53.730;10.010;2023-03-15T10:10:35;101067.41;;;1.65;100.00
20444;BME280;10381;53.730;10.010;2023-03-15T10:19:17;101065.34;;;1.90;100.00
20444;BME280;10381;53.730;10.010;2023-03-15T10:23:36;101058.78;;;2.18;100.00
20444;BME280;10381;53.730;10.010;2023-03-15T10:31:57;101058.16;;;1.58;100.00
20444;BME280;10381;53.730;10.010;2023-03-15T10:35:58;101059.38;;;1.51;100.00
20444;BME280;10381;53.730;10.010;2023-03-15T10:39:58;101060.59;;;1.99;100.00
20444;BME280;10381;53.730;10.010;2023-03-15T10:44:02;101060.72;;;2.15;100.00
20444;BME280;10381;53.730;10.010;2023-03-15T10:48:03;101057.31;;;2.12;100.00
20444;BME280;10381;53.730;10.010;2023-03-15T10:52:04;101059.09;;;2.64;100.00
20444;BME280;10381;53.730;10.010;2023-03-15T10:56:06;101064.69;;;2.74;100.00
20444;BME280;10381;53.730;10.010;2023-03-15T11:00:33;101058.22;;;2.98;100.00
20444;BME280;10381;53.730;10.010;2023-03-15T11:04:40;101050.66;;;2.92;100.00
20444;BME280;10381;53.730;10.010;2023-03-15T11:08:40;101070.91;;;3.22;100.00
20444;BME280;10381;53.730;10.010;2023-03-15T11:12:41;101052.50;;;3.24;100.00
20444;BME280;10381;53.730;10.010;2023-03-15T11:16:46;101050.78;;;3.72;100.00
20444;BME280;10381;53.730;10.010;2023-03-15T11:20:46;101027.63;;;4.10;100.00
20444;BME280;10381;53.730;10.010;2023-03-15T11:24:48;101024.34;;;4.37;100.00
20444;BME280;10381;53.730;10.010;2023-03-15T11:28:51;101025.09;;;3.47;100.00
20444;BME280;10381;53.730;10.010;2023-03-15T11:32:53;101028.47;;;3.33;100.00
20444;BME280;10381;53.730;10.010;2023-03-15T11:36:58;101044.72;;;3.22;100.00
20444;BME280;10381;53.730;10.010;2023-03-15T11:41:04;101081.03;;;1.72;100.00
20444;BME280;10381;53.730;10.010;2023-03-15T11:45:19;101088.78;;;0.96;100.00
20444;BME280;10381;53.730;10.010;2023-03-15T11:49:35;101092.47;;;1.11;100.00
20444;BME280;10381;53.730;10.010;2023-03-15T11:53:46;101089.91;;;1.30;100.00
20444;BME280;10381;53.730;10.010;2023-03-15T11:57:47;101089.94;;;1.48;100.00
20444;BME280;10381;53.730;10.010;2023-03-15T12:06:32;101098.25;;;2.31;100.00
20444;BME280;10381;53.730;10.010;2023-03-15T12:10:42;101105.09;;;2.68;100.00
20444;BME280;10381;53.730;10.010;2023-03-15T12:14:44;101089.59;;;3.16;100.00
20444;BME280;10381;53.730;10.010;2023-03-15T12:18:44;101086.09;;;3.65;100.00
20444;BME280;10381;53.730;10.010;2023-03-15T12:22:54;101088.41;;;3.71;100.00
20444;BME280;10381;53.730;10.010;2023-03-15T12:27:04;101085.19;;;3.97;100.00
20444;BME280;10381;53.730;10.010;2023-03-15T12:31:11;101066.13;;;4.40;100.00
20444;BME280;10381;53.730;10.010;2023-03-15T12:35:16;101064.00;;;4.77;100.00
20444;BME280;10381;53.730;10.010;2023-03-15T12:39:40;101069.00;;;4.51;100.00
20444;BME280;10381;53.730;10.010;2023-03-15T12:43:42;101063.44;;;5.15;100.00
20444;BME280;10381;53.730;10.010;2023-03-15T12:52:03;101072.53;;;4.95;100.00
20444;BME280;10381;53.730;10.010;2023-03-15T12:56:28;101073.34;;;4.81;100.00
20444;BME280;10381;53.730;10.010;2023-03-15T13:00:32;101073.88;;;4.57;100.00
20444;BME280;10381;53.730;10.010;2023-03-15T13:04:34;101082.97;;;4.66;100.00
20444;BME280;10381;53.730;10.010;2023-03-15T13:08:38;101080.13;;;4.99;100.00
20444;BME280;10381;53.730;10.010;2023-03-15T13:12:51;101080.13;;;4.99;100.00
20444;BME280;10381;53.730;10.010;2023-03-15T13:21:27;101091.78;;;5.38;100.00
20444;BME280;10381;53.730;10.010;2023-03-15T13:25:49;101098.72;;;5.39;100.00
20444;BME280;10381;53.730;10.010;2023-03-15T13:29:51;101096.22;;;5.79;100.00
20444;BME280;10381;53.730;10.010;2023-03-15T13:33:54;101095.09;;;5.97;100.00
20444;BME280;10381;53.730;10.010;2023-03-15T13:38:06;101096.31;;;5.92;100.00
20444;BME280;10381;53.730;10.010;2023-03-15T13:42:19;101097.97;;;6.07;100.00
20444;BME280;10381;53.730;10.010;2023-03-15T13:46:22;101096.59;;;5.87;100.00
20444;BME280;10381;53.730;10.010;2023-03-15T13:50:23;101102.28;;;5.09;100.00
20444;BME280;10381;53.730;10.010;2023-03-15T13:54:28;101109.03;;;5.42;100.00
20444;BME280;10381;53.730;10.010;2023-03-15T13:58:29;101112.03;;;5.36;100.00
20444;BME280;10381;53.730;10.010;2023-03-15T14:06:42;101125.69;;;5.84;100.00
20444;BME280;10381;53.730;10.010;2023-03-15T14:11:00;101112.97;;;5.64;100.00
20444;BME280;10381;53.730;10.010;2023-03-15T14:15:00;101120.91;;;5.91;100.00
20444;BME280;10381;53.730;10.010;2023-03-15T14:19:14;101116.22;;;5.96;100.00
20444;BME280;10381;53.730;10.010;2023-03-15T14:23:17;101131.38;;;6.19;100.00
20444;BME280;10381;53.730;10.010;2023-03-15T14:27:24;101140.94;;;5.65;100.00
20444;BME280;10381;53.730;10.010;2023-03-15T14:31:27;101135.78;;;5.34;100.00
20444;BME280;10381;53.730;10.010;2023-03-15T14:35:30;101147.13;;;5.21;100.00
20444;BME280;10381;53.730;10.010;2023-03-15T14:39:38;101148.97;;;5.04;100.00
20444;BME280;10381;53.730;10.010;2023-03-15T14:43:39;101149.22;;;5.44;100.00
20444;BME280;10381;53.730;10.010;2023-03-15T14:47:43;101156.81;;;5.49;100.00
20444;BME280;10381;53.730;10.010;2023-03-15T14:51:53;101154.06;;;5.50;100.00
20444;BME280;10381;53.730;10.010;2023-03-15T14:55:54;101152.75;;;5.58;100.00
20444;BME280;10381;53.730;10.010;2023-03-15T14:59:55;101139.25;;;5.35;100.00
20444;BME280;10381;53.730;10.010;2023-03-15T15:03:58;101148.44;;;5.13;100.00
20444;BME280;10381;53.730;10.010;2023-03-15T15:08:01;101158.97;;;5.28;100.00
20444;BME280;10381;53.730;10.010;2023-03-15T15:12:03;101153.50;;;5.74;100.00
20444;BME280;10381;53.730;10.010;2023-03-15T15:16:04;101171.56;;;5.94;100.00
20444;BME280;10381;53.730;10.010;2023-03-15T15:20:05;101175.03;;;5.66;100.00
20444;BME280;10381;53.730;10.010;2023-03-15T15:24:13;101185.88;;;5.89;100.00
20444;BME280;10381;53.730;10.010;2023-03-15T15:28:14;101193.78;;;5.89;100.00
20444;BME280;10381;53.730;10.010;2023-03-15T15:32:15;101191.44;;;5.70;100.00
20444;BME280;10381;53.730;10.010;2023-03-15T15:36:21;101207.97;;;5.58;100.00
20444;BME280;10381;53.730;10.010;2023-03-15T15:40:27;101199.97;;;5.30;100.00
20444;BME280;10381;53.730;10.010;2023-03-15T15:44:29;101201.00;;;5.28;100.00
20444;BME280;10381;53.730;10.010;2023-03-15T15:48:29;101199.91;;;5.46;100.00
20444;BME280;10381;53.730;10.010;2023-03-15T15:52:30;101201.38;;;5.36;100.00
20444;BME280;10381;53.730;10.010;2023-03-15T15:56:36;101195.34;;;5.20;100.00
20444;BME280;10381;53.730;10.010;2023-03-15T16:00:39;101201.00;;;5.28;100.00
20444;BME280;10381;53.730;10.010;2023-03-15T16:04:39;101212.31;;;5.14;100.00
20444;BME280;10381;53.730;10.010;2023-03-15T16:08:39;101220.19;;;5.14;100.00
20444;BME280;10381;53.730;10.010;2023-03-15T16:12:40;101240.56;;;4.95;100.00
20444;BME280;10381;53.730;10.010;2023-03-15T16:16:41;101252.19;;;4.90;100.00
20444;BME280;10381;53.730;10.010;2023-03-15T16:20:42;101253.19;;;4.88;100.00
20444;BME280;10381;53.730;10.010;2023-03-15T16:24:44;101260.25;;;4.87;100.00
20444;BME280;10381;53.730;10.010;2023-03-15T16:28:46;101262.53;;;4.78;100.00
20444;BME280;10381;53.730;10.010;2023-03-15T16:32:49;101281.25;;;4.56;100.00
20444;BME280;10381;53.730;10.010;2023-03-15T16:36:54;101265.69;;;4.37;100.00
20444;BME280;10381;53.730;10.010;2023-03-15T16:40:54;101273.63;;;4.19;100.00
20444;BME280;10381;53.730;10.010;2023-03-15T16:44:54;101275.47;;;4.17;100.00
20444;BME280;10381;53.730;10.010;2023-03-15T16:48:54;101273.09;;;4.13;100.00
20444;BME280;10381;53.730;10.010;2023-03-15T16:52:57;101271.81;;;4.04;100.00
20444;BME280;10381;53.730;10.010;2023-03-15T16:56:58;101280.78;;;4.00;100.00
20444;BME280;10381;53.730;10.010;2023-03-15T17:01:00;101286.44;;;3.92;100.00
20444;BME280;10381;53.730;10.010;2023-03-15T17:05:00;101282.81;;;3.95;100.00
20444;BME280;10381;53.730;10.010;2023-03-15T17:09:04;101290.06;;;3.72;100.00
20444;BME280;10381;53.730;10.010;2023-03-15T17:13:11;101293.94;;;3.65;100.00
20444;BME280;10381;53.730;10.010;2023-03-15T17:17:12;101312.16;;;3.68;100.00
20444;BME280;10381;53.730;10.010;2023-03-15T17:21:14;101321.53;;;3.55;100.00
20444;BME280;10381;53.730;10.010;2023-03-15T17:25:16;101318.16;;;3.53;100.00
20444;BME280;10381;53.730;10.010;2023-03-15T17:29:17;101321.78;;;3.33;100.00
20444;BME280;10381;53.730;10.010;2023-03-15T17:33:17;101327.81;;;2.98;100.00
20444;BME280;10381;53.730;10.010;2023-03-15T17:37:17;101335.34;;;3.05;100.00
20444;BME280;10381;53.730;10.010;2023-03-15T17:41:23;101334.94;;;2.95;100.00
20444;BME280;10381;53.730;10.010;2023-03-15T17:45:32;101336.72;;;2.94;100.00
20444;BME280;10381;53.730;10.010;2023-03-15T17:49:33;101334.19;;;2.74;100.00
20444;BME280;10381;53.730;10.010;2023-03-15T17:53:33;101346.50;;;2.72;100.00
20444;BME280;10381;53.730;10.010;2023-03-15T17:57:33;101349.97;;;2.72;100.00
20444;BME280;10381;53.730;10.010;2023-03-15T18:01:34;101354.22;;;2.75;100.00
20444;BME280;10381;53.730;10.010;2023-03-15T18:05:35;101350.66;;;2.38;100.00
20444;BME280;10381;53.730;10.010;2023-03-15T18:09:35;101360.59;;;2.30;100.00
20444;BME280;10381;53.730;10.010;2023-03-15T18:13:35;101357.53;;;2.41;100.00
20444;BME280;10381;53.730;10.010;2023-03-15T18:17:35;101359.38;;;2.39;100.00
20444;BME280;10381;53.730;10.010;2023-03-15T18:21:36;101367.31;;;2.17;100.00
20444;BME280;10381;53.730;10.010;2023-03-15T18:25:36;101372.22;;;2.04;100.00
20444;BME280;10381;53.730;10.010;2023-03-15T18:29:36;101374.19;;;1.99;100.00
20444;BME280;10381;53.730;10.010;2023-03-15T18:33:37;101370.19;;;2.10;100.00
20444;BME280;10381;53.730;10.010;2023-03-15T18:37:37;101373.81;;;2.27;100.00
20444;BME280;10381;53.730;10.010;2023-03-15T18:41:37;101377.78;;;2.17;100.00
20444;BME280;10381;53.730;10.010;2023-03-15T18:45:37;101379.59;;;2.15;100.00
20444;BME280;10381;53.730;10.010;2023-03-15T18:49:38;101376.91;;;2.16;100.00
20444;BME280;10381;53.730;10.010;2023-03-15T18:53:38;101382.56;;;2.07;100.00
20444;BME280;10381;53.730;10.010;2023-03-15T18:57:40;101385.28;;;2.04;100.00
20444;BME280;10381;53.730;10.010;2023-03-15T19:01:42;101388.97;;;2.00;100.00
20444;BME280;10381;53.730;10.010;2023-03-15T19:05:43;101396.19;;;1.93;100.00
20444;BME280;10381;53.730;10.010;2023-03-15T19:09:43;101397.44;;;1.84;100.00
20444;BME280;10381;53.730;10.010;2023-03-15T19:13:43;101403.16;;;1.72;100.00
20444;BME280;10381;53.730;10.010;2023-03-15T19:17:51;101404.28;;;1.66;100.00
20444;BME280;10381;53.730;10.010;2023-03-15T19:21:53;101395.50;;;1.47;100.00
20444;BME280;10381;53.730;10.010;2023-03-15T19:25:55;101408.09;;;1.37;100.00
20444;BME280;10381;53.730;10.010;2023-03-15T19:29:56;101406.84;;;1.46;100.00
20444;BME280;10381;53.730;10.010;2023-03-15T19:33:56;101403.31;;;1.25;100.00
20444;BME280;10381;53.730;10.010;2023-03-15T19:37:56;101414.88;;;1.19;100.00
20444;BME280;10381;53.730;10.010;2023-03-15T19:41:56;101413.06;;;1.21;100.00
20444;BME280;10381;53.730;10.010;2023-03-15T19:45:58;101410.78;;;0.90;100.00
20444;BME280;10381;53.730;10.010;2023-03-15T19:50:00;101416.38;;;0.79;100.00
20444;BME280;10381;53.730;10.010;2023-03-15T19:54:01;101419.53;;;0.89;100.00
20444;BME280;10381;53.730;10.010;2023-03-15T19:58:02;101420.91;;;0.74;100.00
20444;BME280;10381;53.730;10.010;2023-03-15T20:02:02;101431.94;;;0.59;100.00
20444;BME280;10381;53.730;10.010;2023-03-15T20:06:07;101431.38;;;0.51;100.00
20444;BME280;10381;53.730;10.010;2023-03-15T20:10:09;101427.28;;;0.67;100.00
20444;BME280;10381;53.730;10.010;2023-03-15T20:14:10;101431.00;;;0.60;100.00
20444;BME280;10381;53.730;10.010;2023-03-15T20:18:11;101440.91;;;0.50;100.00
20444;BME280;10381;53.730;10.010;2023-03-15T20:22:13;101444.56;;;0.46;100.00
20444;BME280;10381;53.730;10.010;2023-03-15T20:26:16;101445.38;;;0.48;100.00
20444;BME280;10381;53.730;10.010;2023-03-15T20:30:17;101453.06;;;0.26;100.00
20444;BME280;10381;53.730;10.010;2023-03-15T20:34:17;101460.91;;;-0.01;100.00
20444;BME280;10381;53.730;10.010;2023-03-15T20:38:17;101461.41;;;0.36;100.00
20444;BME280;10381;53.730;10.010;2023-03-15T20:42:22;101463.59;;;0.23;100.00
20444;BME280;10381;53.730;10.010;2023-03-15T20:46:22;101470.56;;;0.23;100.00
20444;BME280;10381;53.730;10.010;2023-03-15T20:50:23;101477.25;;;0.05;100.00
20444;BME280;10381;53.730;10.010;2023-03-15T20:54:23;101473.94;;;-0.01;100.00
20444;BME280;10381;53.730;10.010;2023-03-15T20:58:23;101474.97;;;-0.05;100.00
20444;BME280;10381;53.730;10.010;2023-03-15T21:02:24;101474.44;;;-0.14;100.00
20444;BME280;10381;53.730;10.010;2023-03-15T21:06:24;101479.84;;;0.05;100.00
20444;BME280;10381;53.730;10.010;2023-03-15T21:10:24;101489.44;;;0.04;100.00
20444;BME280;10381;53.730;10.010;2023-03-15T21:14:25;101493.13;;;-0.03;100.00
20444;BME280;10381;53.730;10.010;2023-03-15T21:18:25;101490.06;;;-0.14;100.00